sensor_id;sensor_type;location;lat;lon;timestamp;P1;durP1;ratioP1;P2;durP2;ratioP2
12725;SDS011;6427;49.754;6.106;2024-01-30T00:01:05;21.00;;;12.63;;
12725;SDS011;6427;49.754;6.106;2024-01-30T00:03:32;23.50;;;13.13;;
12725;SDS011;6427;49.754;6.106;2024-01-30T00:06:00;23.60;;;13.77;;
12725;SDS011;6427;49.754;6.106;2024-01-30T00:08:27;25.23;;;15.03;;
12725;SDS011;6427;49.754;6.106;2024-01-30T00:10:55;25.40;;;15.70;;
12725;SDS011;6427;49.754;6.106;2024-01-30T00:13:23;25.93;;;15.10;;
12725;SDS011;6427;49.754;6.106;2024-01-30T00:15:50;29.27;;;16.97;;
12725;SDS011;6427;49.754;6.106;2024-01-30T00:18:18;35.67;;;18.37;;
12725;SDS011;6427;49.754;6.106;2024-01-30T00:20:45;35.40;;;20.20;;
12725;SDS011;6427;49.754;6.106;2024-01-30T00:23:13;38.20;;;20.03;;
12725;SDS011;6427;49.754;6.106;2024-01-30T00:25:41;31.27;;;18.80;;
12725;SDS011;6427;49.754;6.106;2024-01-30T00:28:09;33.73;;;18.63;;
12725;SDS011;6427;49.754;6.106;2024-01-30T00:30:37;28.60;;;17.00;;
12725;SDS011;6427;49.754;6.106;2024-01-30T00:33:05;30.47;;;17.57;;
12725;SDS011;6427;49.754;6.106;2024-01-30T00:35:33;33.63;;;22.35;;
12725;SDS011;6427;49.754;6.106;2024-01-30T00:38:00;29.10;;;18.90;;
12725;SDS011;6427;49.754;6.106;2024-01-30T00:40:28;28.47;;;17.57;;
12725;SDS011;6427;49.754;6.106;2024-01-30T00:42:55;29.33;;;19.70;;
12725;SDS011;6427;49.754;6.106;2024-01-30T00:45:23;24.07;;;16.83;;
12725;SDS011;6427;49.754;6.106;2024-01-30T00:47:51;29.10;;;15.57;;
12725;SDS011;6427;49.754;6.106;2024-01-30T00:50:18;23.50;;;15.00;;
12725;SDS011;6427;49.754;6.106;2024-01-30T00:52:47;24.17;;;17.55;;
12725;SDS011;6427;49.754;6.106;2024-01-30T00:55:14;25.90;;;15.17;;
12725;SDS011;6427;49.754;6.106;2024-01-30T00:57:42;23.70;;;16.80;;
12725;SDS011;6427;49.754;6.106;2024-01-30T01:00:09;22.87;;;14.53;;
12725;SDS011;6427;49.754;6.106;2024-01-30T01:02:37;24.40;;;14.83;;
12725;SDS011;6427;49.754;6.106;2024-01-30T01:05:05;20.30;;;12.67;;
12725;SDS011;6427;49.754;6.106;2024-01-30T01:07:32;20.12;;;15.65;;
12725;SDS011;6427;49.754;6.106;2024-01-30T01:10:00;18.43;;;12.77;;
12725;SDS011;6427;49.754;6.106;2024-01-30T01:12:28;21.60;;;13.63;;
12725;SDS011;6427;49.754;6.106;2024-01-30T01:14:55;23.70;;;16.73;;
12725;SDS011;6427;49.754;6.106;2024-01-30T01:17:23;19.67;;;13.40;;
12725;SDS011;6427;49.754;6.106;2024-01-30T01:19:52;21.00;;;13.10;;
12725;SDS011;6427;49.754;6.106;2024-01-30T01:22:19;21.43;;;13.57;;
12725;SDS011;6427;49.754;6.106;2024-01-30T01:24:47;21.62;;;16.15;;
12725;SDS011;6427;49.754;6.106;2024-01-30T01:27:15;22.13;;;14.33;;
12725;SDS011;6427;49.754;6.106;2024-01-30T01:29:44;16.73;;;11.80;;
12725;SDS011;6427;49.754;6.106;2024-01-30T01:32:11;18.30;;;12.23;;
12725;SDS011;6427;49.754;6.106;2024-01-30T01:34:39;32.40;;;16.37;;
12725;SDS011;6427;49.754;6.106;2024-01-30T01:37:07;31.67;;;14.53;;
12725;SDS011;6427;49.754;6.106;2024-01-30T01:39:34;32.77;;;13.70;;
12725;SDS011;6427;49.754;6.106;2024-01-30T01:42:02;31.03;;;14.17;;
12725;SDS011;6427;49.754;6.106;2024-01-30T01:44:29;25.33;;;13.37;;
12725;SDS011;6427;49.754;6.106;2024-01-30T01:46:57;34.27;;;13.57;;
12725;SDS011;6427;49.754;6.106;2024-01-30T01:49:25;23.40;;;14.95;;
12725;SDS011;6427;49.754;6.106;2024-01-30T01:51:54;27.03;;;13.77;;
12725;SDS011;6427;49.754;6.106;2024-01-30T01:54:21;26.92;;;16.33;;
12725;SDS011;6427;49.754;6.106;2024-01-30T01:56:49;23.73;;;14.20;;
12725;SDS011;6427;49.754;6.106;2024-01-30T01:59:16;26.53;;;13.87;;
12725;SDS011;6427;49.754;6.106;2024-01-30T02:01:44;36.67;;;15.60;;
12725;SDS011;6427;49.754;6.106;2024-01-30T02:04:12;37.87;;;17.40;;
12725;SDS011;6427;49.754;6.106;2024-01-30T02:06:40;41.77;;;18.03;;
12725;SDS011;6427;49.754;6.106;2024-01-30T02:09:08;73.28;;;32.72;;
12725;SDS011;6427;49.754;6.106;2024-01-30T02:11:36;69.80;;;27.83;;
12725;SDS011;6427;49.754;6.106;2024-01-30T02:14:04;60.70;;;24.30;;
12725;SDS011;6427;49.754;6.106;2024-01-30T02:16:31;57.37;;;23.13;;
12725;SDS011;6427;49.754;6.106;2024-01-30T02:18:59;53.90;;;21.60;;
12725;SDS011;6427;49.754;6.106;2024-01-30T02:21:26;84.03;;;21.57;;
12725;SDS011;6427;49.754;6.106;2024-01-30T02:23:54;67.20;;;21.27;;
12725;SDS011;6427;49.754;6.106;2024-01-30T02:26:21;51.70;;;22.23;;
12725;SDS011;6427;49.754;6.106;2024-01-30T02:28:50;43.65;;;22.87;;
12725;SDS011;6427;49.754;6.106;2024-01-30T02:31:17;52.00;;;21.00;;
12725;SDS011;6427;49.754;6.106;2024-01-30T02:33:45;43.03;;;18.73;;
12725;SDS011;6427;49.754;6.106;2024-01-30T02:36:13;45.73;;;16.57;;
12725;SDS011;6427;49.754;6.106;2024-01-30T02:38:40;33.30;;;11.77;;
12725;SDS011;6427;49.754;6.106;2024-01-30T02:41:08;24.92;;;14.77;;
12725;SDS011;6427;49.754;6.106;2024-01-30T02:43:35;40.70;;;13.70;;
12725;SDS011;6427;49.754;6.106;2024-01-30T02:46:03;27.97;;;12.30;;
12725;SDS011;6427;49.754;6.106;2024-01-30T02:48:31;45.27;;;13.57;;
12725;SDS011;6427;49.754;6.106;2024-01-30T02:50:59;36.42;;;15.60;;
12725;SDS011;6427;49.754;6.106;2024-01-30T02:53:27;45.33;;;14.20;;
12725;SDS011;6427;49.754;6.106;2024-01-30T02:55:56;33.63;;;13.73;;
12725;SDS011;6427;49.754;6.106;2024-01-30T02:58:23;39.43;;;13.03;;
12725;SDS011;6427;49.754;6.106;2024-01-30T03:00:52;45.90;;;17.92;;
12725;SDS011;6427;49.754;6.106;2024-01-30T03:03:20;44.27;;;14.13;;
12725;SDS011;6427;49.754;6.106;2024-01-30T03:05:48;38.40;;;14.17;;
12725;SDS011;6427;49.754;6.106;2024-01-30T03:08:16;49.78;;;17.12;;
12725;SDS011;6427;49.754;6.106;2024-01-30T03:10:44;49.47;;;16.10;;
12725;SDS011;6427;49.754;6.106;2024-01-30T03:13:12;33.50;;;13.00;;
12725;SDS011;6427;49.754;6.106;2024-01-30T03:15:40;38.67;;;13.33;;
12725;SDS011;6427;49.754;6.106;2024-01-30T03:18:09;40.50;;;14.70;;
12725;SDS011;6427;49.754;6.106;2024-01-30T03:20:36;42.30;;;14.40;;
12725;SDS011;6427;49.754;6.106;2024-01-30T03:23:05;33.00;;;16.58;;
12725;SDS011;6427;49.754;6.106;2024-01-30T03:25:33;26.87;;;13.07;;
12725;SDS011;6427;49.754;6.106;2024-01-30T03:28:01;28.33;;;13.03;;
12725;SDS011;6427;49.754;6.106;2024-01-30T03:30:29;48.13;;;14.43;;
12725;SDS011;6427;49.754;6.106;2024-01-30T03:32:57;25.57;;;14.53;;
12725;SDS011;6427;49.754;6.106;2024-01-30T03:35:24;53.73;;;15.57;;
12725;SDS011;6427;49.754;6.106;2024-01-30T03:37:52;30.73;;;14.23;;
12725;SDS011;6427;49.754;6.106;2024-01-30T03:40:19;29.93;;;12.97;;
12725;SDS011;6427;49.754;6.106;2024-01-30T03:42:47;25.50;;;13.70;;
12725;SDS011;6427;49.754;6.106;2024-01-30T03:45:14;23.67;;;12.53;;
12725;SDS011;6427;49.754;6.106;2024-01-30T03:47:43;23.93;;;13.57;;
12725;SDS011;6427;49.754;6.106;2024-01-30T03:50:10;30.03;;;13.23;;
12725;SDS011;6427;49.754;6.106;2024-01-30T03:52:37;26.80;;;12.43;;
12725;SDS011;6427;49.754;6.106;2024-01-30T03:55:05;27.40;;;11.90;;
12725;SDS011;6427;49.754;6.106;2024-01-30T03:57:32;31.23;;;12.67;;
12725;SDS011;6427;49.754;6.106;2024-01-30T04:00:00;27.25;;;16.23;;
12725;SDS011;6427;49.754;6.106;2024-01-30T04:02:28;25.45;;;16.50;;
12725;SDS011;6427;49.754;6.106;2024-01-30T04:04:55;18.63;;;13.13;;
12725;SDS011;6427;49.754;6.106;2024-01-30T04:07:23;19.20;;;12.57;;
12725;SDS011;6427;49.754;6.106;2024-01-30T04:09:50;40.87;;;13.50;;
12725;SDS011;6427;49.754;6.106;2024-01-30T04:12:18;30.27;;;12.80;;
12725;SDS011;6427;49.754;6.106;2024-01-30T04:14:46;17.43;;;11.97;;
12725;SDS011;6427;49.754;6.106;2024-01-30T04:17:13;23.30;;;13.10;;
12725;SDS011;6427;49.754;6.106;2024-01-30T04:19:41;27.40;;;13.43;;
12725;SDS011;6427;49.754;6.106;2024-01-30T04:22:08;29.07;;;12.23;;
12725;SDS011;6427;49.754;6.106;2024-01-30T04:24:36;32.77;;;12.97;;
12725;SDS011;6427;49.754;6.106;2024-01-30T04:27:04;33.70;;;13.63;;
12725;SDS011;6427;49.754;6.106;2024-01-30T04:29:31;32.77;;;14.20;;
12725;SDS011;6427;49.754;6.106;2024-01-30T04:31:59;30.10;;;13.43;;
12725;SDS011;6427;49.754;6.106;2024-01-30T04:34:26;44.30;;;14.13;;
12725;SDS011;6427;49.754;6.106;2024-01-30T04:36:54;32.43;;;13.53;;
12725;SDS011;6427;49.754;6.106;2024-01-30T04:39:22;28.83;;;14.77;;
12725;SDS011;6427;49.754;6.106;2024-01-30T04:41:50;31.23;;;14.57;;
12725;SDS011;6427;49.754;6.106;2024-01-30T04:44:17;26.90;;;13.70;;
12725;SDS011;6427;49.754;6.106;2024-01-30T04:46:45;29.23;;;15.27;;
12725;SDS011;6427;49.754;6.106;2024-01-30T04:49:13;30.10;;;14.80;;
12725;SDS011;6427;49.754;6.106;2024-01-30T04:51:40;29.33;;;14.43;;
12725;SDS011;6427;49.754;6.106;2024-01-30T04:54:08;33.67;;;18.20;;
12725;SDS011;6427;49.754;6.106;2024-01-30T04:56:35;36.00;;;16.30;;
12725;SDS011;6427;49.754;6.106;2024-01-30T04:59:03;39.53;;;15.70;;
12725;SDS011;6427;49.754;6.106;2024-01-30T05:01:31;62.17;;;17.30;;
12725;SDS011;6427;49.754;6.106;2024-01-30T05:03:59;38.57;;;18.43;;
12725;SDS011;6427;49.754;6.106;2024-01-30T05:06:27;44.07;;;16.87;;
12725;SDS011;6427;49.754;6.106;2024-01-30T05:08:54;48.20;;;20.92;;
12725;SDS011;6427;49.754;6.106;2024-01-30T05:11:22;56.73;;;18.83;;
12725;SDS011;6427;49.754;6.106;2024-01-30T05:13:49;63.80;;;19.17;;
12725;SDS011;6427;49.754;6.106;2024-01-30T05:16:17;49.03;;;17.47;;
12725;SDS011;6427;49.754;6.106;2024-01-30T05:18:45;42.03;;;18.03;;
12725;SDS011;6427;49.754;6.106;2024-01-30T05:21:13;71.37;;;17.80;;
12725;SDS011;6427;49.754;6.106;2024-01-30T05:23:41;52.77;;;16.57;;
12725;SDS011;6427;49.754;6.106;2024-01-30T05:26:09;64.13;;;16.00;;
12725;SDS011;6427;49.754;6.106;2024-01-30T05:28:36;46.87;;;16.80;;
12725;SDS011;6427;49.754;6.106;2024-01-30T05:31:04;56.70;;;21.37;;
12725;SDS011;6427;49.754;6.106;2024-01-30T05:33:32;49.77;;;19.13;;
12725;SDS011;6427;49.754;6.106;2024-01-30T05:35:59;48.37;;;16.57;;
12725;SDS011;6427;49.754;6.106;2024-01-30T05:38:27;55.03;;;21.85;;
12725;SDS011;6427;49.754;6.106;2024-01-30T05:40:57;42.53;;;17.60;;
12725;SDS011;6427;49.754;6.106;2024-01-30T05:43:24;35.17;;;20.05;;
12725;SDS011;6427;49.754;6.106;2024-01-30T05:45:52;43.97;;;20.98;;
12725;SDS011;6427;49.754;6.106;2024-01-30T05:48:20;44.10;;;16.83;;
12725;SDS011;6427;49.754;6.106;2024-01-30T05:50:47;45.93;;;16.90;;
12725;SDS011;6427;49.754;6.106;2024-01-30T05:53:15;40.40;;;20.40;;
12725;SDS011;6427;49.754;6.106;2024-01-30T05:55:43;32.83;;;16.63;;
12725;SDS011;6427;49.754;6.106;2024-01-30T05:58:10;32.33;;;16.40;;
12725;SDS011;6427;49.754;6.106;2024-01-30T06:00:38;32.93;;;15.17;;
12725;SDS011;6427;49.754;6.106;2024-01-30T06:03:06;28.90;;;15.40;;
12725;SDS011;6427;49.754;6.106;2024-01-30T06:05:34;41.17;;;17.77;;
12725;SDS011;6427;49.754;6.106;2024-01-30T06:08:02;27.37;;;15.03;;
12725;SDS011;6427;49.754;6.106;2024-01-30T06:10:30;30.70;;;16.70;;
12725;SDS011;6427;49.754;6.106;2024-01-30T06:12:58;32.83;;;20.48;;
12725;SDS011;6427;49.754;6.106;2024-01-30T06:15:26;33.00;;;17.27;;
12725;SDS011;6427;49.754;6.106;2024-01-30T06:17:53;34.70;;;21.17;;
12725;SDS011;6427;49.754;6.106;2024-01-30T06:20:21;30.10;;;17.00;;
12725;SDS011;6427;49.754;6.106;2024-01-30T06:22:48;32.07;;;19.13;;
12725;SDS011;6427;49.754;6.106;2024-01-30T06:25:17;31.57;;;16.57;;
12725;SDS011;6427;49.754;6.106;2024-01-30T06:27:44;34.00;;;15.87;;
12725;SDS011;6427;49.754;6.106;2024-01-30T06:30:12;31.37;;;19.55;;
12725;SDS011;6427;49.754;6.106;2024-01-30T06:32:40;28.77;;;16.30;;
12725;SDS011;6427;49.754;6.106;2024-01-30T06:35:07;31.83;;;16.17;;
12725;SDS011;6427;49.754;6.106;2024-01-30T06:37:35;31.17;;;17.13;;
12725;SDS011;6427;49.754;6.106;2024-01-30T06:40:02;27.60;;;16.57;;
12725;SDS011;6427;49.754;6.106;2024-01-30T06:42:30;25.47;;;16.53;;
12725;SDS011;6427;49.754;6.106;2024-01-30T06:44:58;23.63;;;15.23;;
12725;SDS011;6427;49.754;6.106;2024-01-30T06:47:26;25.27;;;15.77;;
12725;SDS011;6427;49.754;6.106;2024-01-30T06:49:54;27.57;;;16.10;;
12725;SDS011;6427;49.754;6.106;2024-01-30T06:52:22;28.63;;;17.80;;
12725;SDS011;6427;49.754;6.106;2024-01-30T06:54:50;22.40;;;14.67;;
12725;SDS011;6427;49.754;6.106;2024-01-30T06:57:17;26.05;;;18.12;;
12725;SDS011;6427;49.754;6.106;2024-01-30T06:59:45;25.43;;;15.20;;
12725;SDS011;6427;49.754;6.106;2024-01-30T07:02:12;42.47;;;15.10;;
12725;SDS011;6427;49.754;6.106;2024-01-30T07:04:41;49.50;;;19.98;;
12725;SDS011;6427;49.754;6.106;2024-01-30T07:07:09;63.23;;;17.70;;
12725;SDS011;6427;49.754;6.106;2024-01-30T07:09:38;61.43;;;16.67;;
12725;SDS011;6427;49.754;6.106;2024-01-30T07:12:05;52.73;;;15.70;;
12725;SDS011;6427;49.754;6.106;2024-01-30T07:14:33;29.03;;;14.47;;
12725;SDS011;6427;49.754;6.106;2024-01-30T07:17:00;33.53;;;15.07;;
12725;SDS011;6427;49.754;6.106;2024-01-30T07:19:29;42.78;;;20.12;;
12725;SDS011;6427;49.754;6.106;2024-01-30T07:21:56;25.83;;;15.83;;
12725;SDS011;6427;49.754;6.106;2024-01-30T07:24:25;28.25;;;17.75;;
12725;SDS011;6427;49.754;6.106;2024-01-30T07:26:52;23.00;;;15.20;;
12725;SDS011;6427;49.754;6.106;2024-01-30T07:29:20;23.40;;;14.53;;
12725;SDS011;6427;49.754;6.106;2024-01-30T07:31:47;21.53;;;14.10;;
12725;SDS011;6427;49.754;6.106;2024-01-30T07:34:15;21.13;;;13.57;;
12725;SDS011;6427;49.754;6.106;2024-01-30T07:36:43;20.13;;;13.43;;
12725;SDS011;6427;49.754;6.106;2024-01-30T07:39:10;23.60;;;14.23;;
12725;SDS011;6427;49.754;6.106;2024-01-30T07:41:38;23.97;;;14.83;;
12725;SDS011;6427;49.754;6.106;2024-01-30T07:44:06;30.30;;;14.87;;
12725;SDS011;6427;49.754;6.106;2024-01-30T07:46:34;33.03;;;15.03;;
12725;SDS011;6427;49.754;6.106;2024-01-30T07:49:01;24.87;;;15.17;;
12725;SDS011;6427;49.754;6.106;2024-01-30T07:51:29;25.27;;;14.83;;
12725;SDS011;6427;49.754;6.106;2024-01-30T07:53:56;21.50;;;13.87;;
12725;SDS011;6427;49.754;6.106;2024-01-30T07:56:25;25.42;;;18.45;;
12725;SDS011;6427;49.754;6.106;2024-01-30T07:58:53;23.10;;;14.63;;
12725;SDS011;6427;49.754;6.106;2024-01-30T08:01:21;22.90;;;14.90;;
12725;SDS011;6427;49.754;6.106;2024-01-30T08:03:48;24.87;;;18.55;;
12725;SDS011;6427;49.754;6.106;2024-01-30T08:06:16;24.70;;;15.30;;
12725;SDS011;6427;49.754;6.106;2024-01-30T08:08:44;23.03;;;15.40;;
12725;SDS011;6427;49.754;6.106;2024-01-30T08:11:12;22.03;;;14.73;;
12725;SDS011;6427;49.754;6.106;2024-01-30T08:13:40;25.33;;;14.63;;
12725;SDS011;6427;49.754;6.106;2024-01-30T08:16:07;27.98;;;19.98;;
12725;SDS011;6427;49.754;6.106;2024-01-30T08:18:35;24.63;;;16.23;;
12725;SDS011;6427;49.754;6.106;2024-01-30T08:21:02;26.43;;;16.10;;
12725;SDS011;6427;49.754;6.106;2024-01-30T08:23:30;25.93;;;16.57;;
12725;SDS011;6427;49.754;6.106;2024-01-30T08:25:58;28.80;;;17.10;;
12725;SDS011;6427;49.754;6.106;2024-01-30T08:28:27;28.67;;;16.53;;
12725;SDS011;6427;49.754;6.106;2024-01-30T08:30:54;25.30;;;16.10;;
12725;SDS011;6427;49.754;6.106;2024-01-30T08:33:22;32.00;;;16.33;;
12725;SDS011;6427;49.754;6.106;2024-01-30T08:35:50;27.17;;;17.33;;
12725;SDS011;6427;49.754;6.106;2024-01-30T08:38:19;21.07;;;14.93;;
12725;SDS011;6427;49.754;6.106;2024-01-30T08:40:46;22.40;;;15.13;;
12725;SDS011;6427;49.754;6.106;2024-01-30T08:43:14;22.50;;;14.00;;
12725;SDS011;6427;49.754;6.106;2024-01-30T08:45:42;21.77;;;14.50;;
12725;SDS011;6427;49.754;6.106;2024-01-30T08:48:10;21.97;;;14.13;;
12725;SDS011;6427;49.754;6.106;2024-01-30T08:50:38;20.40;;;13.90;;
12725;SDS011;6427;49.754;6.106;2024-01-30T08:53:06;21.27;;;13.93;;
12725;SDS011;6427;49.754;6.106;2024-01-30T08:55:34;22.43;;;13.80;;
12725;SDS011;6427;49.754;6.106;2024-01-30T08:58:02;20.87;;;13.97;;
12725;SDS011;6427;49.754;6.106;2024-01-30T09:00:29;20.60;;;13.23;;
12725;SDS011;6427;49.754;6.106;2024-01-30T09:02:58;23.45;;;17.80;;
12725;SDS011;6427;49.754;6.106;2024-01-30T09:05:25;24.67;;;15.10;;
12725;SDS011;6427;49.754;6.106;2024-01-30T09:07:53;25.37;;;16.23;;
12725;SDS011;6427;49.754;6.106;2024-01-30T09:10:21;26.33;;;16.53;;
12725;SDS011;6427;49.754;6.106;2024-01-30T09:12:49;22.53;;;15.33;;
12725;SDS011;6427;49.754;6.106;2024-01-30T09:15:16;21.70;;;14.10;;
12725;SDS011;6427;49.754;6.106;2024-01-30T09:17:46;21.23;;;16.58;;
12725;SDS011;6427;49.754;6.106;2024-01-30T09:20:14;23.97;;;15.17;;
12725;SDS011;6427;49.754;6.106;2024-01-30T09:22:42;20.63;;;14.20;;
12725;SDS011;6427;49.754;6.106;2024-01-30T09:25:09;22.03;;;14.97;;
12725;SDS011;6427;49.754;6.106;2024-01-30T09:27:37;21.70;;;17.33;;
12725;SDS011;6427;49.754;6.106;2024-01-30T09:30:05;20.77;;;14.47;;
12725;SDS011;6427;49.754;6.106;2024-01-30T09:32:32;23.03;;;15.37;;
12725;SDS011;6427;49.754;6.106;2024-01-30T09:35:00;29.60;;;14.87;;
12725;SDS011;6427;49.754;6.106;2024-01-30T09:37:28;27.27;;;19.17;;
12725;SDS011;6427;49.754;6.106;2024-01-30T09:39:56;26.87;;;17.23;;
12725;SDS011;6427;49.754;6.106;2024-01-30T09:44:52;24.33;;;16.40;;
12725;SDS011;6427;49.754;6.106;2024-01-30T09:47:20;26.33;;;16.00;;
12725;SDS011;6427;49.754;6.106;2024-01-30T09:49:48;24.48;;;17.70;;
12725;SDS011;6427;49.754;6.106;2024-01-30T09:52:15;22.83;;;15.73;;
12725;SDS011;6427;49.754;6.106;2024-01-30T09:54:43;19.53;;;14.27;;
12725;SDS011;6427;49.754;6.106;2024-01-30T09:57:11;23.67;;;14.57;;
12725;SDS011;6427;49.754;6.106;2024-01-30T09:59:38;23.40;;;14.90;;
12725;SDS011;6427;49.754;6.106;2024-01-30T10:02:07;22.43;;;14.20;;
12725;SDS011;6427;49.754;6.106;2024-01-30T10:04:35;21.13;;;14.37;;
12725;SDS011;6427;49.754;6.106;2024-01-30T10:07:02;22.17;;;14.67;;
12725;SDS011;6427;49.754;6.106;2024-01-30T10:09:34;22.87;;;17.45;;
12725;SDS011;6427;49.754;6.106;2024-01-30T10:12:01;25.97;;;16.60;;
12725;SDS011;6427;49.754;6.106;2024-01-30T10:14:29;21.23;;;14.13;;
12725;SDS011;6427;49.754;6.106;2024-01-30T10:16:57;25.70;;;15.47;;
12725;SDS011;6427;49.754;6.106;2024-01-30T10:19:24;25.73;;;17.98;;
12725;SDS011;6427;49.754;6.106;2024-01-30T10:21:51;21.73;;;14.73;;
12725;SDS011;6427;49.754;6.106;2024-01-30T10:24:23;24.07;;;15.37;;
12725;SDS011;6427;49.754;6.106;2024-01-30T10:26:47;26.92;;;18.42;;
12725;SDS011;6427;49.754;6.106;2024-01-30T10:29:14;23.97;;;15.90;;
12725;SDS011;6427;49.754;6.106;2024-01-30T10:31:43;23.33;;;15.10;;
12725;SDS011;6427;49.754;6.106;2024-01-30T10:34:11;21.77;;;14.37;;
12725;SDS011;6427;49.754;6.106;2024-01-30T10:36:42;23.43;;;15.03;;
12725;SDS011;6427;49.754;6.106;2024-01-30T10:39:09;25.80;;;18.02;;
12725;SDS011;6427;49.754;6.106;2024-01-30T10:41:43;25.67;;;16.40;;
12725;SDS011;6427;49.754;6.106;2024-01-30T10:44:11;22.47;;;14.80;;
12725;SDS011;6427;49.754;6.106;2024-01-30T10:46:38;20.73;;;14.20;;
12725;SDS011;6427;49.754;6.106;2024-01-30T10:49:06;21.00;;;14.17;;
12725;SDS011;6427;49.754;6.106;2024-01-30T10:51:34;22.00;;;15.30;;
12725;SDS011;6427;49.754;6.106;2024-01-30T10:54:02;25.17;;;15.60;;
12725;SDS011;6427;49.754;6.106;2024-01-30T10:56:30;24.93;;;16.53;;
12725;SDS011;6427;49.754;6.106;2024-01-30T10:58:58;21.87;;;14.53;;
12725;SDS011;6427;49.754;6.106;2024-01-30T11:01:25;25.20;;;17.55;;
12725;SDS011;6427;49.754;6.106;2024-01-30T11:03:53;21.93;;;15.30;;
12725;SDS011;6427;49.754;6.106;2024-01-30T11:06:24;21.83;;;14.70;;
12725;SDS011;6427;49.754;6.106;2024-01-30T11:09:03;21.20;;;14.53;;
12725;SDS011;6427;49.754;6.106;2024-01-30T11:11:52;21.55;;;16.37;;
12725;SDS011;6427;49.754;6.106;2024-01-30T11:14:29;23.83;;;18.23;;
12725;SDS011;6427;49.754;6.106;2024-01-30T11:16:52;32.50;;;22.85;;
12725;SDS011;6427;49.754;6.106;2024-01-30T11:19:24;26.33;;;17.93;;
12725;SDS011;6427;49.754;6.106;2024-01-30T11:21:55;25.53;;;17.80;;
12725;SDS011;6427;49.754;6.106;2024-01-30T11:24:23;20.40;;;13.97;;
12725;SDS011;6427;49.754;6.106;2024-01-30T11:26:57;23.90;;;14.63;;
12725;SDS011;6427;49.754;6.106;2024-01-30T11:29:25;21.27;;;14.80;;
12725;SDS011;6427;49.754;6.106;2024-01-30T11:31:56;19.97;;;13.73;;
12725;SDS011;6427;49.754;6.106;2024-01-30T11:34:24;20.57;;;14.77;;
12725;SDS011;6427;49.754;6.106;2024-01-30T11:36:58;21.83;;;14.90;;
12725;SDS011;6427;49.754;6.106;2024-01-30T11:39:30;22.53;;;15.10;;
12725;SDS011;6427;49.754;6.106;2024-01-30T11:41:58;24.03;;;15.17;;
12725;SDS011;6427;49.754;6.106;2024-01-30T11:44:26;22.97;;;15.10;;
12725;SDS011;6427;49.754;6.106;2024-01-30T11:46:54;25.25;;;17.40;;
12725;SDS011;6427;49.754;6.106;2024-01-30T11:49:22;24.30;;;16.13;;
12725;SDS011;6427;49.754;6.106;2024-01-30T11:51:49;20.73;;;13.67;;
12725;SDS011;6427;49.754;6.106;2024-01-30T11:54:17;23.40;;;14.70;;
12725;SDS011;6427;49.754;6.106;2024-01-30T11:56:45;22.83;;;14.30;;
12725;SDS011;6427;49.754;6.106;2024-01-30T11:59:13;20.93;;;14.07;;
12725;SDS011;6427;49.754;6.106;2024-01-30T12:01:40;22.42;;;15.88;;
12725;SDS011;6427;49.754;6.106;2024-01-30T12:04:08;21.30;;;14.90;;
12725;SDS011;6427;49.754;6.106;2024-01-30T12:06:36;24.33;;;14.77;;
12725;SDS011;6427;49.754;6.106;2024-01-30T12:09:04;16.20;;;12.40;;
12725;SDS011;6427;49.754;6.106;2024-01-30T12:11:31;17.47;;;11.97;;
12725;SDS011;6427;49.754;6.106;2024-01-30T12:13:59;17.03;;;11.97;;
12725;SDS011;6427;49.754;6.106;2024-01-30T12:16:27;21.67;;;13.83;;
12725;SDS011;6427;49.754;6.106;2024-01-30T12:19:00;20.63;;;11.70;;
12725;SDS011;6427;49.754;6.106;2024-01-30T12:21:28;27.60;;;16.00;;
12725;SDS011;6427;49.754;6.106;2024-01-30T12:23:58;24.23;;;15.43;;
12725;SDS011;6427;49.754;6.106;2024-01-30T12:26:26;22.17;;;12.63;;
12725;SDS011;6427;49.754;6.106;2024-01-30T12:28:56;21.70;;;13.77;;
12725;SDS011;6427;49.754;6.106;2024-01-30T12:31:26;20.33;;;13.23;;
12725;SDS011;6427;49.754;6.106;2024-01-30T12:33:59;16.77;;;11.37;;
12725;SDS011;6427;49.754;6.106;2024-01-30T12:36:24;16.90;;;11.37;;
12725;SDS011;6427;49.754;6.106;2024-01-30T12:38:51;12.63;;;9.87;;
12725;SDS011;6427;49.754;6.106;2024-01-30T12:41:19;17.67;;;11.87;;
12725;SDS011;6427;49.754;6.106;2024-01-30T12:43:47;18.20;;;11.73;;
12725;SDS011;6427;49.754;6.106;2024-01-30T12:46:16;19.35;;;14.63;;
12725;SDS011;6427;49.754;6.106;2024-01-30T12:48:42;21.40;;;14.30;;
12725;SDS011;6427;49.754;6.106;2024-01-30T12:51:09;19.70;;;13.87;;
12725;SDS011;6427;49.754;6.106;2024-01-30T12:53:37;15.67;;;10.00;;
12725;SDS011;6427;49.754;6.106;2024-01-30T12:56:05;18.87;;;13.60;;
12725;SDS011;6427;49.754;6.106;2024-01-30T12:58:32;20.00;;;13.87;;
12725;SDS011;6427;49.754;6.106;2024-01-30T13:01:00;19.17;;;13.00;;
12725;SDS011;6427;49.754;6.106;2024-01-30T13:03:27;18.67;;;11.83;;
12725;SDS011;6427;49.754;6.106;2024-01-30T13:05:56;20.20;;;14.40;;
12725;SDS011;6427;49.754;6.106;2024-01-30T13:08:24;17.37;;;12.13;;
12725;SDS011;6427;49.754;6.106;2024-01-30T13:10:53;15.60;;;10.03;;
12725;SDS011;6427;49.754;6.106;2024-01-30T13:13:20;16.77;;;9.73;;
12725;SDS011;6427;49.754;6.106;2024-01-30T13:15:48;19.33;;;11.93;;
12725;SDS011;6427;49.754;6.106;2024-01-30T13:18:15;16.33;;;10.17;;
12725;SDS011;6427;49.754;6.106;2024-01-30T13:20:44;16.30;;;10.83;;
12725;SDS011;6427;49.754;6.106;2024-01-30T13:23:12;16.43;;;10.00;;
12725;SDS011;6427;49.754;6.106;2024-01-30T13:25:40;17.23;;;9.80;;
12725;SDS011;6427;49.754;6.106;2024-01-30T13:28:08;15.52;;;11.48;;
12725;SDS011;6427;49.754;6.106;2024-01-30T13:30:36;15.60;;;9.17;;
12725;SDS011;6427;49.754;6.106;2024-01-30T13:33:04;14.00;;;8.37;;
12725;SDS011;6427;49.754;6.106;2024-01-30T13:35:32;13.20;;;8.20;;
12725;SDS011;6427;49.754;6.106;2024-01-30T13:37:59;12.23;;;8.77;;
12725;SDS011;6427;49.754;6.106;2024-01-30T13:40:28;14.30;;;10.02;;
12725;SDS011;6427;49.754;6.106;2024-01-30T13:42:55;13.80;;;8.03;;
12725;SDS011;6427;49.754;6.106;2024-01-30T13:45:23;15.70;;;8.67;;
12725;SDS011;6427;49.754;6.106;2024-01-30T13:47:50;14.55;;;9.18;;
12725;SDS011;6427;49.754;6.106;2024-01-30T13:50:18;13.87;;;8.40;;
12725;SDS011;6427;49.754;6.106;2024-01-30T13:52:46;12.63;;;7.93;;
12725;SDS011;6427;49.754;6.106;2024-01-30T13:55:15;12.93;;;8.00;;
12725;SDS011;6427;49.754;6.106;2024-01-30T13:57:43;16.20;;;7.53;;
12725;SDS011;6427;49.754;6.106;2024-01-30T14:00:10;10.43;;;6.60;;
12725;SDS011;6427;49.754;6.106;2024-01-30T14:02:38;13.27;;;6.93;;
12725;SDS011;6427;49.754;6.106;2024-01-30T14:05:06;16.57;;;6.80;;
12725;SDS011;6427;49.754;6.106;2024-01-30T14:07:35;12.60;;;8.40;;
12725;SDS011;6427;49.754;6.106;2024-01-30T14:10:02;12.23;;;7.03;;
12725;SDS011;6427;49.754;6.106;2024-01-30T14:12:30;11.32;;;7.62;;
12725;SDS011;6427;49.754;6.106;2024-01-30T14:14:58;11.63;;;6.87;;
12725;SDS011;6427;49.754;6.106;2024-01-30T14:17:25;10.13;;;6.53;;
12725;SDS011;6427;49.754;6.106;2024-01-30T14:19:53;10.43;;;7.45;;
12725;SDS011;6427;49.754;6.106;2024-01-30T14:22:20;11.03;;;6.73;;
12725;SDS011;6427;49.754;6.106;2024-01-30T14:24:48;13.40;;;6.60;;
12725;SDS011;6427;49.754;6.106;2024-01-30T14:27:16;9.50;;;6.37;;
12725;SDS011;6427;49.754;6.106;2024-01-30T14:29:45;11.30;;;5.73;;
12725;SDS011;6427;49.754;6.106;2024-01-30T14:32:12;10.23;;;6.27;;
12725;SDS011;6427;49.754;6.106;2024-01-30T14:34:40;10.18;;;7.12;;
12725;SDS011;6427;49.754;6.106;2024-01-30T14:37:08;16.83;;;11.73;;
12725;SDS011;6427;49.754;6.106;2024-01-30T14:39:36;10.07;;;6.13;;
12725;SDS011;6427;49.754;6.106;2024-01-30T14:42:03;8.17;;;6.20;;